createdAt,value
2023-01-04T00:01:12.240Z,59.89
2023-01-04T00:03:40.444Z,59.74
2023-01-04T00:06:11.182Z,59.86
2023-01-04T00:08:39.412Z,59.69
2023-01-04T00:11:10.568Z,60.00
2023-01-04T00:13:39.153Z,60.00
2023-01-04T00:16:11.834Z,60.06
2023-01-04T00:18:40.400Z,59.94
2023-01-04T00:21:10.478Z,60.07
2023-01-04T00:23:39.646Z,60.11
2023-01-04T00:26:12.164Z,60.00
2023-01-04T00:28:40.648Z,60.27
2023-01-04T00:31:11.279Z,60.41
2023-01-04T00:33:39.817Z,60.23
2023-01-04T00:36:10.785Z,60.18
2023-01-04T00:38:39.832Z,60.17
2023-01-04T00:41:18.889Z,60.31
2023-01-04T00:43:59.315Z,60.43
2023-01-04T00:46:27.431Z,60.14
2023-01-04T00:49:00.082Z,60.36
2023-01-04T00:51:30.359Z,60.48
2023-01-04T00:53:59.780Z,60.28
2023-01-04T00:56:29.281Z,60.42
2023-01-04T00:58:58.503Z,60.44
2023-01-04T01:01:28.115Z,60.50
2023-01-04T01:03:57.906Z,60.45
2023-01-04T01:06:27.278Z,60.28
2023-01-04T01:08:55.613Z,60.46
2023-01-04T01:11:23.723Z,60.60
2023-01-04T01:13:52.502Z,60.92
2023-01-04T01:16:51.588Z,60.52
2023-01-04T01:19:11.337Z,61.16
2023-01-04T01:21:39.575Z,61.05
2023-01-04T01:24:09.970Z,60.89
2023-01-04T01:26:37.880Z,61.19
2023-01-04T01:29:05.781Z,61.20
2023-01-04T01:31:33.792Z,61.52
2023-01-04T01:34:02.950Z,61.21
2023-01-04T01:36:30.887Z,61.50
2023-01-04T01:38:58.856Z,61.73
2023-01-04T01:41:29.381Z,61.64
2023-01-04T01:44:00.042Z,61.79
2023-01-04T01:46:34.276Z,61.54
2023-01-04T01:49:08.989Z,61.52
2023-01-04T01:51:38.359Z,61.95
2023-01-04T01:54:11.646Z,61.36
2023-01-04T01:56:42.097Z,61.67
2023-01-04T01:59:11.618Z,61.49
2023-01-04T02:04:42.989Z,61.61
2023-01-04T02:07:11.855Z,61.88
2023-01-04T02:09:40.528Z,61.66
2023-01-04T02:12:12.379Z,61.54
2023-01-04T02:14:42.826Z,61.70
2023-01-04T02:17:17.462Z,61.82
2023-01-04T02:20:05.926Z,62.03
2023-01-04T02:23:07.640Z,61.87
2023-01-04T02:26:09.524Z,61.83
2023-01-04T02:28:55.315Z,62.05
2023-01-04T02:31:32.569Z,62.03
2023-01-04T02:34:08.256Z,62.29
2023-01-04T02:36:40.446Z,62.52
2023-01-04T02:39:18.795Z,62.08
2023-01-04T02:41:53.901Z,62.36
2023-01-04T02:44:49.461Z,62.19
2023-01-04T02:47:42.190Z,62.49
2023-01-04T02:50:31.147Z,62.57
2023-01-04T02:53:01.531Z,62.43
2023-01-04T02:55:39.990Z,62.32
2023-01-04T02:58:18.883Z,62.75
2023-01-04T03:01:17.252Z,62.96
2023-01-04T03:04:15.726Z,63.13
2023-01-04T03:06:50.961Z,62.88
2023-01-04T03:09:23.050Z,62.99
2023-01-04T03:12:14.138Z,63.08
2023-01-04T03:14:47.992Z,63.17
2023-01-04T03:17:21.005Z,63.05
2023-01-04T03:19:54.206Z,63.15
2023-01-04T03:22:48.233Z,62.99
2023-01-04T03:25:40.298Z,63.19
2023-01-04T03:28:29.205Z,63.51
2023-01-04T03:31:19.955Z,63.63
2023-01-04T03:34:06.946Z,63.49
2023-01-04T03:36:45.850Z,63.47
2023-01-04T03:39:39.295Z,63.46
2023-01-04T03:42:35.187Z,63.70
2023-01-04T03:45:32.428Z,63.84
2023-01-04T03:48:26.371Z,63.68
2023-01-04T03:51:02.370Z,63.81
2023-01-04T03:53:33.131Z,63.70
2023-01-04T03:56:02.222Z,63.96
2023-01-04T03:58:30.172Z,63.94
2023-01-04T04:01:02.721Z,64.25
2023-01-04T04:03:49.782Z,64.19
2023-01-04T04:06:35.907Z,64.26
2023-01-04T04:09:04.172Z,64.26
2023-01-04T04:11:32.375Z,64.46
2023-01-04T04:14:00.747Z,64.41
2023-01-04T04:16:28.954Z,64.63
2023-01-04T04:18:57.125Z,64.46
2023-01-04T04:21:25.062Z,64.58
2023-01-04T04:23:55.287Z,64.41
2023-01-04T04:26:23.943Z,64.56
2023-01-04T04:28:51.905Z,64.54
2023-01-04T04:31:19.977Z,64.69
2023-01-04T04:33:48.129Z,64.56
2023-01-04T04:36:16.161Z,64.74
2023-01-04T04:38:44.137Z,64.63
2023-01-04T04:41:32.209Z,64.67
2023-01-04T04:44:00.167Z,64.73
2023-01-04T04:46:28.138Z,64.77
2023-01-04T04:48:56.205Z,64.91
2023-01-04T04:51:24.203Z,64.92
2023-01-04T04:53:52.220Z,64.96
2023-01-04T04:56:20.210Z,64.94
2023-01-04T04:58:48.438Z,64.82
2023-01-04T05:01:16.894Z,64.88
2023-01-04T05:03:45.224Z,65.09
2023-01-04T05:06:13.271Z,64.98
2023-01-04T05:08:41.187Z,64.89
2023-01-04T05:11:11.210Z,65.04
2023-01-04T05:13:39.390Z,65.06
2023-01-04T05:16:09.322Z,65.26
2023-01-04T05:18:37.618Z,65.14
2023-01-04T05:21:06.011Z,65.00
2023-01-04T05:23:33.926Z,65.04
2023-01-04T05:26:03.172Z,65.09
2023-01-04T05:28:33.662Z,65.17
2023-01-04T05:31:06.265Z,65.10
2023-01-04T05:33:34.270Z,65.05
2023-01-04T05:36:04.369Z,64.90
2023-01-04T05:38:32.765Z,64.98
2023-01-04T05:41:01.847Z,65.16
2023-01-04T05:43:29.949Z,65.19
2023-01-04T05:45:57.923Z,65.22
2023-01-04T05:48:28.188Z,65.39
2023-01-04T05:50:56.148Z,65.39
2023-01-04T05:53:25.305Z,65.33
2023-01-04T05:55:54.193Z,65.19
2023-01-04T05:58:24.290Z,65.34
2023-01-04T06:00:52.476Z,65.19
2023-01-04T06:03:20.638Z,65.35
2023-01-04T06:05:50.560Z,65.15
2023-01-04T06:08:18.507Z,65.41
2023-01-04T06:10:53.507Z,65.37
2023-01-04T06:13:21.640Z,65.25
2023-01-04T06:15:49.604Z,65.35
2023-01-04T06:18:17.611Z,65.23
2023-01-04T06:20:45.581Z,65.42
2023-01-04T06:23:13.607Z,65.36
2023-01-04T06:25:42.870Z,65.60
2023-01-04T06:28:11.227Z,65.51
2023-01-04T06:30:39.279Z,65.53
2023-01-04T06:33:07.243Z,65.16
2023-01-04T06:35:35.565Z,65.28
2023-01-04T06:38:03.548Z,65.46
2023-01-04T06:40:31.485Z,65.32
2023-01-04T06:42:59.380Z,65.47
2023-01-04T06:45:27.376Z,65.51
2023-01-04T06:47:55.294Z,65.32
2023-01-04T06:50:23.723Z,65.40
2023-01-04T06:52:51.634Z,65.43
2023-01-04T06:55:19.608Z,65.54
2023-01-04T06:57:47.586Z,65.59
2023-01-04T07:00:17.777Z,65.73
2023-01-04T07:03:13.881Z,65.90
2023-01-04T07:05:33.811Z,65.83
2023-01-04T07:08:07.630Z,65.99
2023-01-04T07:10:36.566Z,66.03
2023-01-04T07:13:05.016Z,65.99
2023-01-04T07:15:38.112Z,65.96
2023-01-04T07:18:08.239Z,66.30
2023-01-04T07:20:36.843Z,66.37
2023-01-04T07:23:05.828Z,66.28
2023-01-04T07:25:42.690Z,65.71
2023-01-04T07:28:10.794Z,65.72
2023-01-04T07:30:39.226Z,65.91
2023-01-04T07:33:07.583Z,66.25
2023-01-04T07:35:35.738Z,65.80
2023-01-04T07:38:04.801Z,65.00
2023-01-04T07:40:32.981Z,64.23
2023-01-04T07:43:01.534Z,64.01
2023-01-04T07:45:29.789Z,64.31
2023-01-04T07:47:58.812Z,64.34
2023-01-04T07:50:26.803Z,63.73
2023-01-04T07:52:54.788Z,62.85
2023-01-04T07:55:22.699Z,62.44
2023-01-04T07:57:53.918Z,61.78
2023-01-04T08:00:22.297Z,60.94
2023-01-04T08:02:50.538Z,59.90
2023-01-04T08:05:18.871Z,58.86
2023-01-04T08:07:47.038Z,58.13
2023-01-04T08:10:15.251Z,57.52
2023-01-04T08:12:44.810Z,56.79
2023-01-04T08:15:14.445Z,55.88
2023-01-04T08:17:42.458Z,55.47
2023-01-04T08:20:11.447Z,54.96
2023-01-04T08:22:40.084Z,54.46
2023-01-04T08:25:09.528Z,53.82
2023-01-04T08:27:37.524Z,53.00
2023-01-04T08:30:08.296Z,52.44
2023-01-04T08:32:36.366Z,51.91
2023-01-04T08:35:05.584Z,51.10
2023-01-04T08:37:34.798Z,50.44
2023-01-04T08:40:02.783Z,50.36
2023-01-04T08:42:31.899Z,49.99
2023-01-04T08:45:00.572Z,49.63
2023-01-04T08:47:29.004Z,49.50
2023-01-04T08:49:57.877Z,48.64
2023-01-04T08:52:26.849Z,48.16
2023-01-04T08:54:54.805Z,47.61
2023-01-04T08:57:22.743Z,47.16
2023-01-04T08:59:50.708Z,47.14
2023-01-04T09:02:23.045Z,47.14
2023-01-04T09:04:52.017Z,46.10
2023-01-04T09:07:20.351Z,45.70
2023-01-04T09:09:48.399Z,44.79
2023-01-04T09:12:16.359Z,43.88
2023-01-04T09:14:44.548Z,43.54
2023-01-04T09:17:14.089Z,43.32
2023-01-04T09:19:42.222Z,43.48
2023-01-04T09:22:10.233Z,43.14
2023-01-04T09:24:38.237Z,42.79
2023-01-04T09:27:06.168Z,42.89
2023-01-04T09:29:34.149Z,42.92
2023-01-04T09:32:02.243Z,42.92
2023-01-04T09:34:30.404Z,43.36
2023-01-04T09:36:58.329Z,43.98
2023-01-04T09:40:05.873Z,44.15
2023-01-04T09:43:20.257Z,44.96
2023-01-04T09:45:44.066Z,45.31
2023-01-04T09:51:07.124Z,45.89
2023-01-04T09:53:40.621Z,45.94
2023-01-04T09:56:16.636Z,46.02
2023-01-04T09:58:45.202Z,46.16
2023-01-04T10:01:16.967Z,46.44
2023-01-04T10:03:55.163Z,46.90
2023-01-04T10:06:23.190Z,47.24
2023-01-04T10:08:51.386Z,47.62
2023-01-04T10:11:39.775Z,47.94
2023-01-04T10:14:23.825Z,48.56
2023-01-04T10:17:17.858Z,48.84
2023-01-04T10:23:05.847Z,49.65
2023-01-04T10:25:45.932Z,50.33
2023-01-04T10:28:42.064Z,50.23
2023-01-04T10:31:40.253Z,50.71
2023-01-04T10:34:18.952Z,50.98
2023-01-04T10:36:49.739Z,51.22
2023-01-04T10:39:22.595Z,51.07
2023-01-04T10:41:56.583Z,51.13
2023-01-04T10:44:39.551Z,51.40
2023-01-04T10:47:14.886Z,51.49
2023-01-04T10:49:44.286Z,51.39
2023-01-04T10:52:19.675Z,51.49
2023-01-04T10:54:54.792Z,51.72
2023-01-04T10:57:26.218Z,51.92
2023-01-04T10:59:58.931Z,52.36
2023-01-04T11:02:35.607Z,52.77
2023-01-04T11:05:12.547Z,52.69
2023-01-04T11:07:45.306Z,52.91
2023-01-04T11:10:18.175Z,52.97
2023-01-04T11:12:46.274Z,53.15
2023-01-04T11:15:14.525Z,53.27
2023-01-04T11:17:43.323Z,53.68
2023-01-04T11:20:12.017Z,53.65
2023-01-04T11:22:45.806Z,54.02
2023-01-04T11:25:35.602Z,54.41
2023-01-04T11:28:13.802Z,54.57
2023-01-04T11:30:51.357Z,54.85
2023-01-04T11:33:20.961Z,55.20
2023-01-04T11:35:50.557Z,55.20
2023-01-04T11:38:20.314Z,55.44
2023-01-04T11:41:05.018Z,55.59
2023-01-04T11:43:34.434Z,55.83
2023-01-04T11:46:05.218Z,55.95
2023-01-04T11:48:36.265Z,56.22
2023-01-04T11:51:06.035Z,56.39
2023-01-04T11:53:36.780Z,56.69
2023-01-04T11:56:20.160Z,57.01
2023-01-04T11:59:12.922Z,57.15
2023-01-04T12:01:44.098Z,57.47
2023-01-04T12:04:20.168Z,57.90
2023-01-04T12:06:53.530Z,58.10
2023-01-04T12:09:22.363Z,58.20
2023-01-04T12:11:52.601Z,58.32
2023-01-04T12:14:26.476Z,58.64
2023-01-04T12:17:01.368Z,58.60
2023-01-04T12:19:30.274Z,59.02
2023-01-04T12:22:01.520Z,59.13
2023-01-04T12:24:34.380Z,59.38
2023-01-04T12:27:03.864Z,59.29
2023-01-04T12:29:56.570Z,59.49
2023-01-04T12:32:44.934Z,59.49
2023-01-04T12:35:59.499Z,59.58
2023-01-04T12:39:03.925Z,59.80
2023-01-04T12:42:20.522Z,59.95
2023-01-04T12:45:20.499Z,59.94
2023-01-04T12:48:08.935Z,59.86
2023-01-04T12:51:37.377Z,60.17
2023-01-04T12:54:23.616Z,60.08
2023-01-04T12:57:24.520Z,60.40
2023-01-04T12:59:57.793Z,60.65
2023-01-04T13:02:32.313Z,60.84
2023-01-04T13:07:53.131Z,61.12
2023-01-04T13:10:32.018Z,61.26
2023-01-04T13:13:13.241Z,61.22
2023-01-04T13:15:52.655Z,61.03
2023-01-04T13:18:36.132Z,61.25
2023-01-04T13:21:13.443Z,61.31
2023-01-04T13:23:53.895Z,61.44
2023-01-04T13:26:34.947Z,61.55
2023-01-04T13:29:23.481Z,61.50
2023-01-04T13:32:04.290Z,61.93
2023-01-04T13:34:54.711Z,62.07
2023-01-04T13:38:05.781Z,61.99
2023-01-04T13:40:49.096Z,61.90
2023-01-04T13:43:40.017Z,61.95
2023-01-04T13:46:15.199Z,62.18
2023-01-04T13:48:44.123Z,62.16
2023-01-04T13:51:17.818Z,62.29
2023-01-04T13:53:56.688Z,62.35
2023-01-04T13:56:27.265Z,62.47
2023-01-04T13:58:55.876Z,62.52
2023-01-04T14:01:27.594Z,62.35
2023-01-04T14:03:57.886Z,62.51
2023-01-04T14:06:31.488Z,62.55
2023-01-04T14:09:04.485Z,62.50
2023-01-04T14:12:06.817Z,62.50
2023-01-04T14:14:48.638Z,62.56
2023-01-04T14:17:26.463Z,62.53
2023-01-04T14:20:04.571Z,62.59
2023-01-04T14:22:50.304Z,62.62
2023-01-04T14:25:48.004Z,62.77
2023-01-04T14:28:31.784Z,62.53
2023-01-04T14:31:19.048Z,62.45
2023-01-04T14:33:49.646Z,62.42
2023-01-04T14:36:22.236Z,62.58
2023-01-04T14:39:00.394Z,62.42
2023-01-04T14:41:33.515Z,62.55
2023-01-04T14:44:10.243Z,62.36
2023-01-04T14:46:38.700Z,62.49
2023-01-04T14:49:08.650Z,62.72
2023-01-04T14:51:44.859Z,62.53
2023-01-04T14:54:20.435Z,62.78
2023-01-04T14:56:58.268Z,62.81
2023-01-04T14:59:28.000Z,62.65
2023-01-04T15:01:57.610Z,62.83
2023-01-04T15:04:27.287Z,62.97
2023-01-04T15:06:59.142Z,62.98
2023-01-04T15:09:27.731Z,63.09
2023-01-04T15:11:55.800Z,63.18
2023-01-04T15:14:24.366Z,63.21
2023-01-04T15:16:52.378Z,63.36
2023-01-04T15:19:21.279Z,63.44
2023-01-04T15:21:49.207Z,63.36
2023-01-04T15:24:17.354Z,63.51
2023-01-04T15:26:45.542Z,63.54
2023-01-04T15:29:13.645Z,63.58
2023-01-04T15:31:43.086Z,63.59
2023-01-04T15:34:11.471Z,63.44
2023-01-04T15:36:39.929Z,63.67
2023-01-04T15:39:13.319Z,63.61
2023-01-04T15:41:59.634Z,63.66
2023-01-04T15:44:27.769Z,63.78
2023-01-04T15:46:58.477Z,63.72
2023-01-04T15:49:31.164Z,63.85
2023-01-04T15:51:59.807Z,63.91
2023-01-04T15:54:28.463Z,63.78
2023-01-04T15:56:57.062Z,63.88
2023-01-04T15:59:25.536Z,63.75
2023-01-04T16:01:53.846Z,63.66
2023-01-04T16:04:22.151Z,63.75
2023-01-04T16:06:52.035Z,63.80
2023-01-04T16:09:20.154Z,63.98
2023-01-04T16:12:06.410Z,64.12
2023-01-04T16:14:36.106Z,64.23
2023-01-04T16:17:04.101Z,64.38
2023-01-04T16:19:33.557Z,64.47
2023-01-04T16:22:01.557Z,64.66
2023-01-04T16:27:21.596Z,64.61
2023-01-04T16:29:50.394Z,64.64
2023-01-04T16:32:19.244Z,64.66
2023-01-04T16:34:50.064Z,64.84
2023-01-04T16:37:18.098Z,64.97
2023-01-04T16:42:35.805Z,65.19
2023-01-04T16:45:04.316Z,65.13
2023-01-04T16:47:39.966Z,65.35
2023-01-04T16:50:09.996Z,65.33
2023-01-04T16:52:38.101Z,65.50
2023-01-04T16:55:08.595Z,65.48
2023-01-04T16:57:36.545Z,65.50
2023-01-04T17:00:07.068Z,65.68
2023-01-04T17:02:35.805Z,65.86
2023-01-04T17:05:04.619Z,65.94
2023-01-04T17:07:33.415Z,66.12
2023-01-04T17:10:01.721Z,66.23
2023-01-04T17:12:47.518Z,66.14
2023-01-04T17:18:06.198Z,66.32
2023-01-04T17:20:34.355Z,66.45
2023-01-04T17:23:02.407Z,66.34
2023-01-04T17:25:30.544Z,66.64
2023-01-04T17:27:58.472Z,66.66
2023-01-04T17:30:26.402Z,66.90
2023-01-04T17:32:54.407Z,66.97
2023-01-04T17:35:22.330Z,66.96
2023-01-04T17:37:50.334Z,67.16
2023-01-04T17:40:22.866Z,67.32
2023-01-04T17:42:51.678Z,67.30
2023-01-04T17:45:20.150Z,67.48
2023-01-04T17:47:48.119Z,67.58
2023-01-04T17:50:19.349Z,67.63
2023-01-04T17:52:48.354Z,67.68
2023-01-04T17:55:17.327Z,67.73
2023-01-04T17:57:45.721Z,67.80
2023-01-04T18:00:15.719Z,67.93
2023-01-04T18:02:44.533Z,67.98
2023-01-04T18:05:14.028Z,68.02
2023-01-04T18:07:42.036Z,68.08
2023-01-04T18:10:21.366Z,68.19
2023-01-04T18:13:03.748Z,68.38
2023-01-04T18:15:32.488Z,68.40
2023-01-04T18:18:02.772Z,68.37
2023-01-04T18:20:30.954Z,68.53
2023-01-04T18:22:59.107Z,68.64
2023-01-04T18:25:27.095Z,68.90
2023-01-04T18:27:55.219Z,69.03
2023-01-04T18:30:23.204Z,68.98
2023-01-04T18:32:51.634Z,69.10
2023-01-04T18:35:20.204Z,69.10
2023-01-04T18:37:48.150Z,69.40
2023-01-04T18:40:16.368Z,69.52
2023-01-04T18:42:47.768Z,69.41
2023-01-04T18:45:16.574Z,69.50
2023-01-04T18:47:46.947Z,69.58
2023-01-04T18:50:15.926Z,69.77
2023-01-04T18:52:44.370Z,69.90
2023-01-04T18:55:12.547Z,69.99
2023-01-04T18:57:40.905Z,70.13
2023-01-04T19:00:13.393Z,70.08
2023-01-04T19:02:42.090Z,70.25
2023-01-04T19:05:13.027Z,70.33
2023-01-04T19:07:41.835Z,70.59
2023-01-04T19:10:10.187Z,70.63
2023-01-04T19:12:38.474Z,70.70
2023-01-04T19:15:16.977Z,70.66
2023-01-04T19:17:50.100Z,70.68
2023-01-04T19:20:18.568Z,70.66
2023-01-04T19:22:50.663Z,70.65
2023-01-04T19:25:23.131Z,70.83
2023-01-04T19:27:55.009Z,70.88
2023-01-04T19:30:27.509Z,70.91
2023-01-04T19:32:55.717Z,70.96
2023-01-04T19:35:24.916Z,70.97
2023-01-04T19:37:53.046Z,71.14
2023-01-04T19:40:21.328Z,71.07
2023-01-04T19:42:49.333Z,71.32
2023-01-04T19:45:17.553Z,71.35
2023-01-04T19:47:48.799Z,71.33
2023-01-04T19:50:20.713Z,71.41
2023-01-04T19:52:49.622Z,71.51
2023-01-04T19:55:18.111Z,71.55
2023-01-04T19:57:49.852Z,71.45
2023-01-04T20:00:21.806Z,71.61
2023-01-04T20:02:50.751Z,71.71
2023-01-04T20:05:19.264Z,71.55
2023-01-04T20:07:48.561Z,71.69
2023-01-04T20:10:16.734Z,71.74
2023-01-04T20:13:02.322Z,71.83
2023-01-04T20:15:29.416Z,71.96
2023-01-04T20:18:01.260Z,71.99
2023-01-04T20:20:29.313Z,71.99
2023-01-04T20:23:09.163Z,72.02
2023-01-04T20:25:40.754Z,72.12
2023-01-04T20:28:09.030Z,72.12
2023-01-04T20:30:37.686Z,72.20
2023-01-04T20:33:06.595Z,72.30
2023-01-04T20:35:38.532Z,72.17
2023-01-04T20:38:06.647Z,72.29
2023-01-04T20:40:38.574Z,72.38
2023-01-04T20:43:25.215Z,72.34
2023-01-04T20:45:55.055Z,72.21
2023-01-04T20:48:26.811Z,72.32
2023-01-04T20:50:55.388Z,72.53
2023-01-04T20:53:29.231Z,72.53
2023-01-04T20:56:09.324Z,72.60
2023-01-04T20:58:38.088Z,72.68
2023-01-04T21:01:11.025Z,72.70
2023-01-04T21:03:44.123Z,72.79
2023-01-04T21:06:14.909Z,72.82
2023-01-04T21:08:44.790Z,72.79
2023-01-04T21:11:14.012Z,72.86
2023-01-04T21:13:42.427Z,73.00
2023-01-04T21:16:11.109Z,73.07
2023-01-04T21:18:39.261Z,73.10
2023-01-04T21:21:08.912Z,73.29
2023-01-04T21:23:37.899Z,73.22
2023-01-04T21:26:07.774Z,73.42
2023-01-04T21:28:36.363Z,73.27
2023-01-04T21:31:10.244Z,73.33
2023-01-04T21:33:38.520Z,73.32
2023-01-04T21:36:12.025Z,73.49
2023-01-04T21:38:40.105Z,73.45
2023-01-04T21:41:09.699Z,73.37
2023-01-04T21:43:38.133Z,73.33
2023-01-04T21:46:08.120Z,73.50
2023-01-04T21:48:36.366Z,73.52
2023-01-04T21:51:06.608Z,73.55
2023-01-04T21:53:36.175Z,73.63
2023-01-04T21:56:06.724Z,73.55
2023-01-04T21:58:35.329Z,73.65
2023-01-04T22:01:09.147Z,73.59
2023-01-04T22:03:37.176Z,73.63
2023-01-04T22:06:05.888Z,73.72
2023-01-04T22:08:34.761Z,73.69
2023-01-04T22:11:04.135Z,73.75
2023-01-04T22:13:32.194Z,73.90
2023-01-04T22:16:04.164Z,73.78
2023-01-04T22:18:32.313Z,73.79
2023-01-04T22:21:05.322Z,73.75
2023-01-04T22:23:33.928Z,73.87
2023-01-04T22:26:02.232Z,73.91
2023-01-04T22:28:36.347Z,73.81
2023-01-04T22:31:07.050Z,73.82
2023-01-04T22:33:36.220Z,73.84
2023-01-04T22:36:06.230Z,73.77
2023-01-04T22:38:35.097Z,73.86
2023-01-04T22:41:07.067Z,73.89
2023-01-04T22:43:35.783Z,74.10
2023-01-04T22:46:07.637Z,74.12
2023-01-04T22:48:35.895Z,74.22
2023-01-04T22:51:07.812Z,74.15
2023-01-04T22:53:36.928Z,74.15
2023-01-04T22:56:24.099Z,74.23
2023-01-04T22:58:55.368Z,74.13
2023-01-04T23:01:26.061Z,74.18
2023-01-04T23:03:55.439Z,74.24
2023-01-04T23:06:25.130Z,74.34
2023-01-04T23:08:58.718Z,74.23
2023-01-04T23:11:29.558Z,74.18
2023-01-04T23:14:00.530Z,74.34
2023-01-04T23:16:32.996Z,74.34
2023-01-04T23:19:02.234Z,74.29
2023-01-04T23:21:37.708Z,74.22
2023-01-04T23:24:07.265Z,74.34
2023-01-04T23:26:35.307Z,74.50
2023-01-04T23:29:03.998Z,74.39
2023-01-04T23:31:33.652Z,74.55
2023-01-04T23:34:04.675Z,74.55
2023-01-04T23:36:34.297Z,74.62
2023-01-04T23:39:04.950Z,74.68
2023-01-04T23:41:50.669Z,74.60
2023-01-04T23:46:54.312Z,74.64
2023-01-04T23:49:23.569Z,74.70
2023-01-04T23:51:52.526Z,74.74
2023-01-04T23:54:21.943Z,74.66
2023-01-04T23:56:50.146Z,74.79
2023-01-04T23:59:18.697Z,74.78
